createdAt,value
2022-10-03T00:01:17.503Z,10.56
2022-10-03T00:04:16.058Z,10.57
2022-10-03T00:06:47.639Z,10.65
2022-10-03T00:09:35.572Z,10.55
2022-10-03T00:12:16.643Z,10.66
2022-10-03T00:15:09.711Z,10.63
2022-10-03T00:17:57.440Z,10.59
2022-10-03T00:21:02.670Z,10.64
2022-10-03T00:24:01.903Z,10.60
2022-10-03T00:26:49.522Z,10.79
2022-10-03T00:29:15.820Z,10.70
2022-10-03T00:31:57.700Z,10.62
2022-10-03T00:34:45.619Z,10.70
2022-10-03T00:37:33.264Z,10.73
2022-10-03T00:40:50.955Z,10.76
2022-10-03T00:43:43.197Z,10.71
2022-10-03T00:46:54.723Z,10.74
2022-10-03T00:49:23.912Z,10.71
2022-10-03T00:52:14.831Z,10.56
2022-10-03T00:54:58.539Z,10.77
2022-10-03T00:58:09.339Z,10.66
2022-10-03T01:00:36.091Z,10.80
2022-10-03T01:03:33.629Z,10.50
2022-10-03T01:06:33.912Z,10.63
2022-10-03T01:09:16.704Z,10.64
2022-10-03T01:12:04.733Z,10.79
2022-10-03T01:14:49.084Z,10.82
2022-10-03T01:17:48.407Z,10.66
2022-10-03T01:20:27.127Z,10.61
2022-10-03T01:23:14.528Z,10.51
2022-10-03T01:26:26.539Z,10.33
2022-10-03T01:29:44.951Z,10.42
2022-10-03T01:32:30.505Z,10.30
2022-10-03T01:35:19.435Z,10.33
2022-10-03T01:38:06.455Z,10.12
2022-10-03T01:40:54.341Z,10.08
2022-10-03T01:43:36.874Z,9.97
2022-10-03T01:46:16.707Z,10.02
2022-10-03T01:48:48.827Z,9.74
2022-10-03T01:51:24.629Z,9.79
2022-10-03T01:53:57.115Z,9.91
2022-10-03T01:57:06.465Z,9.97
2022-10-03T01:59:55.332Z,9.92
2022-10-03T02:02:46.347Z,9.84
2022-10-03T02:05:39.404Z,9.80
2022-10-03T02:08:21.885Z,9.85
2022-10-03T02:10:55.047Z,9.96
2022-10-03T02:13:47.373Z,9.96
2022-10-03T02:16:52.745Z,9.89
2022-10-03T02:19:26.151Z,9.93
2022-10-03T02:21:55.757Z,9.95
2022-10-03T02:24:37.400Z,9.86
2022-10-03T02:27:51.215Z,9.88
2022-10-03T02:30:41.721Z,9.53
2022-10-03T02:33:38.874Z,9.47
2022-10-03T02:36:26.253Z,9.22
2022-10-03T02:39:30.131Z,9.27
2022-10-03T02:42:29.660Z,9.33
2022-10-03T02:45:33.544Z,9.24
2022-10-03T02:48:32.697Z,9.08
2022-10-03T02:51:26.570Z,9.16
2022-10-03T02:54:20.408Z,9.16
2022-10-03T02:57:17.740Z,9.19
2022-10-03T03:00:08.209Z,9.16
2022-10-03T03:02:57.346Z,9.26
2022-10-03T03:06:04.696Z,9.23
2022-10-03T03:08:43.392Z,8.97
2022-10-03T03:11:25.234Z,9.00
2022-10-03T03:14:10.563Z,8.74
2022-10-03T03:17:15.652Z,8.70
2022-10-03T03:20:00.497Z,8.61
2022-10-03T03:22:34.928Z,8.61
2022-10-03T03:25:26.237Z,8.49
2022-10-03T03:27:52.558Z,8.44
2022-10-03T03:30:23.088Z,8.36
2022-10-03T03:32:56.884Z,8.36
2022-10-03T03:35:32.793Z,8.35
2022-10-03T03:38:05.033Z,8.20
2022-10-03T03:40:59.453Z,8.19
2022-10-03T03:43:44.731Z,8.13
2022-10-03T03:46:32.493Z,8.07
2022-10-03T03:49:19.117Z,8.03
2022-10-03T03:52:09.723Z,8.20
2022-10-03T03:54:57.681Z,7.99
2022-10-03T03:57:33.020Z,8.12
2022-10-03T04:00:23.335Z,8.00
2022-10-03T04:02:58.691Z,7.86
2022-10-03T04:05:33.030Z,8.00
2022-10-03T04:08:25.999Z,8.12
2022-10-03T04:11:13.952Z,8.28
2022-10-03T04:13:54.387Z,8.14
2022-10-03T04:17:01.231Z,8.13
2022-10-03T04:19:40.141Z,8.02
2022-10-03T04:22:50.528Z,8.19
2022-10-03T04:25:46.309Z,8.28
2022-10-03T04:28:34.359Z,8.31
2022-10-03T04:31:39.368Z,8.38
2022-10-03T04:34:44.995Z,8.41
2022-10-03T04:37:48.917Z,8.40
2022-10-03T04:40:42.989Z,8.33
2022-10-03T04:43:28.131Z,8.30
2022-10-03T04:46:14.060Z,8.24
2022-10-03T04:48:47.485Z,8.20
2022-10-03T04:51:52.108Z,8.24
2022-10-03T04:54:32.675Z,8.16
2022-10-03T04:57:07.776Z,8.19
2022-10-03T04:59:46.258Z,8.14
2022-10-03T05:02:35.835Z,8.23
2022-10-03T05:05:23.580Z,8.52
2022-10-03T05:08:05.402Z,8.60
2022-10-03T05:10:48.519Z,8.63
2022-10-03T05:13:18.208Z,8.65
2022-10-03T05:15:52.238Z,8.72
2022-10-03T05:18:29.850Z,8.66
2022-10-03T05:21:06.212Z,8.69
2022-10-03T05:23:55.112Z,8.77
2022-10-03T05:26:45.798Z,8.90
2022-10-03T05:29:35.878Z,8.94
2022-10-03T05:32:17.798Z,8.85
2022-10-03T05:35:08.988Z,8.92
2022-10-03T05:37:55.584Z,9.02
2022-10-03T05:40:25.999Z,9.18
2022-10-03T05:43:02.581Z,9.13
2022-10-03T05:45:38.833Z,9.23
2022-10-03T05:48:24.062Z,9.28
2022-10-03T05:51:15.342Z,9.32
2022-10-03T05:54:19.361Z,9.39
2022-10-03T05:57:23.525Z,9.39
2022-10-03T06:00:09.705Z,9.31
2022-10-03T06:03:02.232Z,9.48
2022-10-03T06:05:57.985Z,9.59
2022-10-03T06:08:51.816Z,9.61
2022-10-03T06:11:45.640Z,9.61
2022-10-03T06:14:30.048Z,9.59
2022-10-03T06:17:24.365Z,9.66
2022-10-03T06:19:57.921Z,9.97
2022-10-03T06:23:05.601Z,9.97
2022-10-03T06:25:50.429Z,10.11
2022-10-03T06:28:44.783Z,10.15
2022-10-03T06:31:14.151Z,10.12
2022-10-03T06:34:02.236Z,10.13
2022-10-03T06:36:56.835Z,10.15
2022-10-03T06:39:56.879Z,10.24
2022-10-03T06:42:45.322Z,10.23
2022-10-03T06:45:31.201Z,10.25
2022-10-03T06:48:15.930Z,10.44
2022-10-03T06:51:13.961Z,10.19
2022-10-03T06:54:19.283Z,10.44
2022-10-03T06:57:04.436Z,10.53
2022-10-03T07:00:10.906Z,10.28
2022-10-03T07:02:39.989Z,10.57
2022-10-03T07:05:41.367Z,10.78
2022-10-03T07:08:28.738Z,10.91
2022-10-03T07:11:04.155Z,11.00
2022-10-03T07:13:37.035Z,11.08
2022-10-03T07:16:28.227Z,11.15
2022-10-03T07:19:28.631Z,11.36
2022-10-03T07:22:36.634Z,11.52
2022-10-03T07:25:37.214Z,11.62
2022-10-03T07:28:06.771Z,11.70
2022-10-03T07:30:51.901Z,11.64
2022-10-03T07:34:05.523Z,11.61
2022-10-03T07:37:20.109Z,11.46
2022-10-03T07:40:08.416Z,11.54
2022-10-03T07:42:52.987Z,11.56
2022-10-03T07:45:30.226Z,11.58
2022-10-03T07:48:15.125Z,11.82
2022-10-03T07:50:59.238Z,12.00
2022-10-03T07:53:47.242Z,11.96
2022-10-03T07:56:35.143Z,11.88
2022-10-03T07:59:20.258Z,12.45
2022-10-03T08:02:24.488Z,12.43
2022-10-03T08:05:17.090Z,12.29
2022-10-03T08:07:52.529Z,12.62
2022-10-03T08:10:45.686Z,12.50
2022-10-03T08:13:26.439Z,12.74
2022-10-03T08:16:21.734Z,12.70
2022-10-03T08:18:56.937Z,12.58
2022-10-03T08:21:47.662Z,12.40
2022-10-03T08:24:32.651Z,12.61
2022-10-03T08:27:13.546Z,12.93
2022-10-03T08:30:04.878Z,12.55
2022-10-03T08:32:34.366Z,12.67
2022-10-03T08:35:24.705Z,12.79
2022-10-03T08:38:07.221Z,12.95
2022-10-03T08:40:56.521Z,12.65
2022-10-03T08:43:44.442Z,12.87
2022-10-03T08:46:28.995Z,13.28
2022-10-03T08:49:29.050Z,13.30
2022-10-03T08:52:21.385Z,13.32
2022-10-03T08:55:06.514Z,13.63
2022-10-03T08:57:54.237Z,13.33
2022-10-03T09:00:35.235Z,13.33
2022-10-03T09:03:37.806Z,13.54
2022-10-03T09:06:24.838Z,13.51
2022-10-03T09:09:08.547Z,13.78
2022-10-03T09:11:38.161Z,13.96
2022-10-03T09:14:29.134Z,13.70
2022-10-03T09:17:09.857Z,14.12
2022-10-03T09:19:59.083Z,14.23
2022-10-03T09:23:02.345Z,14.19
2022-10-03T09:25:31.701Z,14.33
2022-10-03T09:28:10.471Z,14.27
2022-10-03T09:30:55.214Z,13.99
2022-10-03T09:33:55.267Z,14.28
2022-10-03T09:36:36.689Z,14.45
2022-10-03T09:39:27.468Z,14.50
2022-10-03T09:41:59.839Z,14.61
2022-10-03T09:44:56.177Z,14.75
2022-10-03T09:47:59.741Z,14.49
2022-10-03T09:50:55.254Z,14.45
2022-10-03T09:53:40.036Z,14.66
2022-10-03T09:56:12.601Z,15.03
2022-10-03T09:58:39.803Z,14.75
2022-10-03T10:01:28.153Z,15.06
2022-10-03T10:04:53.136Z,15.03
2022-10-03T10:07:44.803Z,14.99
2022-10-03T10:10:44.918Z,15.30
2022-10-03T10:13:16.699Z,15.16
2022-10-03T10:16:01.819Z,15.44
2022-10-03T10:18:59.963Z,15.53
2022-10-03T10:21:51.528Z,15.33
2022-10-03T10:24:21.558Z,15.22
2022-10-03T10:26:57.154Z,15.19
2022-10-03T10:29:26.537Z,15.17
2022-10-03T10:32:11.801Z,15.42
2022-10-03T10:34:57.145Z,15.35
2022-10-03T10:37:26.493Z,15.77
2022-10-03T10:40:24.791Z,15.77
2022-10-03T10:43:11.719Z,15.88
2022-10-03T10:45:50.339Z,16.13
2022-10-03T10:49:08.456Z,16.19
2022-10-03T10:52:03.067Z,16.00
2022-10-03T10:55:04.234Z,16.24
2022-10-03T10:58:05.833Z,16.45
2022-10-03T11:01:01.714Z,16.21
2022-10-03T11:03:46.819Z,16.33
2022-10-03T11:06:57.162Z,16.29
2022-10-03T11:09:46.683Z,16.57
2022-10-03T11:12:44.087Z,16.62
2022-10-03T11:15:52.282Z,16.68
2022-10-03T11:18:55.827Z,15.98
2022-10-03T11:22:00.549Z,16.07
2022-10-03T11:24:51.047Z,16.11
2022-10-03T11:27:53.388Z,16.52
2022-10-03T11:30:38.625Z,16.18
2022-10-03T11:33:42.491Z,15.99
2022-10-03T11:36:29.795Z,15.88
2022-10-03T11:39:11.286Z,15.75
2022-10-03T11:41:51.067Z,15.97
2022-10-03T11:44:22.420Z,16.00
2022-10-03T11:47:05.370Z,16.16
2022-10-03T11:50:09.282Z,16.03
2022-10-03T11:52:55.194Z,16.04
2022-10-03T11:55:45.397Z,16.02
2022-10-03T11:58:34.431Z,16.19
2022-10-03T12:01:28.886Z,16.26
2022-10-03T12:04:11.362Z,16.57
2022-10-03T12:06:56.578Z,16.71
2022-10-03T12:09:48.970Z,16.55
2022-10-03T12:12:35.263Z,16.23
2022-10-03T12:15:29.988Z,16.24
2022-10-03T12:18:25.685Z,16.37
2022-10-03T12:21:21.597Z,16.44
2022-10-03T12:23:59.563Z,16.30
2022-10-03T12:26:54.561Z,16.26
2022-10-03T12:29:25.041Z,16.32
2022-10-03T12:32:10.082Z,16.20
2022-10-03T12:34:39.311Z,16.25
2022-10-03T12:37:23.856Z,16.51
2022-10-03T12:40:06.133Z,16.54
2022-10-03T12:42:41.371Z,16.29
2022-10-03T12:45:20.232Z,16.23
2022-10-03T12:48:23.134Z,16.33
2022-10-03T12:51:20.962Z,16.20
2022-10-03T12:54:15.426Z,16.18
2022-10-03T12:57:02.798Z,16.70
2022-10-03T12:59:47.455Z,16.65
2022-10-03T13:02:58.247Z,16.79
2022-10-03T13:06:05.042Z,16.32
2022-10-03T13:08:52.222Z,16.56
2022-10-03T13:11:45.932Z,16.56
2022-10-03T13:14:33.006Z,16.56
2022-10-03T13:17:28.618Z,16.52
2022-10-03T13:20:03.319Z,16.60
2022-10-03T13:22:48.428Z,16.62
2022-10-03T13:25:33.903Z,16.60
2022-10-03T13:28:45.407Z,16.57
2022-10-03T13:31:55.115Z,16.50
2022-10-03T13:34:32.556Z,16.68
2022-10-03T13:37:16.883Z,16.87
2022-10-03T13:40:07.870Z,16.82
2022-10-03T13:43:13.618Z,16.83
2022-10-03T13:45:51.581Z,16.97
2022-10-03T13:48:27.591Z,16.87
2022-10-03T13:51:21.968Z,16.84
2022-10-03T13:54:09.480Z,16.64
2022-10-03T13:56:48.452Z,16.69
2022-10-03T13:59:40.927Z,16.75
2022-10-03T14:02:27.081Z,16.76
2022-10-03T14:05:18.795Z,16.94
2022-10-03T14:07:51.201Z,16.75
2022-10-03T14:10:33.756Z,16.88
2022-10-03T14:13:02.833Z,16.82
2022-10-03T14:15:59.030Z,16.83
2022-10-03T14:18:57.154Z,16.79
2022-10-03T14:21:56.068Z,16.59
2022-10-03T14:24:26.356Z,16.67
2022-10-03T14:27:11.121Z,16.68
2022-10-03T14:29:58.791Z,16.48
2022-10-03T14:32:59.371Z,16.61
2022-10-03T14:35:59.547Z,16.55
2022-10-03T14:38:57.844Z,16.42
2022-10-03T14:41:54.775Z,16.52
2022-10-03T14:45:00.267Z,16.65
2022-10-03T14:47:40.309Z,16.65
2022-10-03T14:50:22.239Z,16.61
2022-10-03T14:53:06.149Z,16.74
2022-10-03T14:58:28.767Z,16.67
2022-10-03T15:01:12.961Z,16.70
2022-10-03T15:04:15.554Z,16.64
2022-10-03T15:06:44.977Z,16.68
2022-10-03T15:09:40.022Z,16.71
2022-10-03T15:12:28.348Z,16.62
2022-10-03T15:15:05.028Z,16.59
2022-10-03T15:17:35.904Z,16.44
2022-10-03T15:20:13.776Z,16.36
2022-10-03T15:22:58.308Z,16.33
2022-10-03T15:25:38.457Z,16.34
2022-10-03T15:28:23.797Z,16.30
2022-10-03T15:30:56.492Z,16.15
2022-10-03T15:33:32.823Z,16.29
2022-10-03T15:36:23.402Z,16.36
2022-10-03T15:38:53.791Z,16.33
2022-10-03T15:41:26.887Z,16.12
2022-10-03T15:44:01.130Z,16.29
2022-10-03T15:46:44.965Z,16.32
2022-10-03T15:49:30.436Z,16.21
2022-10-03T15:52:09.356Z,16.21
2022-10-03T15:54:39.313Z,16.22
2022-10-03T15:57:08.291Z,16.24
2022-10-03T15:59:40.498Z,16.15
2022-10-03T16:02:18.862Z,16.16
2022-10-03T16:04:46.964Z,16.20
2022-10-03T16:07:33.359Z,16.11
2022-10-03T16:10:20.792Z,15.92
2022-10-03T16:13:03.301Z,15.88
2022-10-03T16:15:47.792Z,15.85
2022-10-03T16:18:53.255Z,15.70
2022-10-03T16:21:45.038Z,15.69
2022-10-03T16:24:29.760Z,15.74
2022-10-03T16:27:06.773Z,15.51
2022-10-03T16:29:37.253Z,15.46
2022-10-03T16:32:07.676Z,15.55
2022-10-03T16:34:36.753Z,15.54
2022-10-03T16:37:14.882Z,15.30
2022-10-03T16:39:43.224Z,15.10
2022-10-03T16:42:18.025Z,14.92
2022-10-03T16:44:47.156Z,14.69
2022-10-03T16:47:15.221Z,14.64
2022-10-03T16:50:13.842Z,14.50
2022-10-03T16:52:42.073Z,14.45
2022-10-03T16:55:17.850Z,14.12
2022-10-03T16:57:58.039Z,14.08
2022-10-03T17:00:32.948Z,13.79
2022-10-03T17:02:59.595Z,13.76
2022-10-03T17:05:26.756Z,13.53
2022-10-03T17:08:23.529Z,13.61
2022-10-03T17:11:00.218Z,13.19
2022-10-03T17:13:46.813Z,13.13
2022-10-03T17:16:27.563Z,13.19
2022-10-03T17:19:08.777Z,13.17
2022-10-03T17:21:40.938Z,13.33
2022-10-03T17:24:15.087Z,13.31
2022-10-03T17:26:47.521Z,13.22
2022-10-03T17:29:32.351Z,12.92
2022-10-03T17:32:29.860Z,13.07
2022-10-03T17:35:29.104Z,12.36
2022-10-03T17:41:55.722Z,12.13
2022-10-03T17:44:52.667Z,12.01
2022-10-03T17:47:26.117Z,12.05
2022-10-03T17:49:57.585Z,12.24
2022-10-03T17:52:24.865Z,12.16
2022-10-03T17:54:56.021Z,12.15
2022-10-03T17:57:26.858Z,12.05
2022-10-03T18:00:09.287Z,11.71
2022-10-03T18:02:46.501Z,11.67
2022-10-03T18:05:28.132Z,11.88
2022-10-03T18:07:57.512Z,11.68
2022-10-03T18:10:36.146Z,11.66
2022-10-03T18:13:09.866Z,11.71
2022-10-03T18:15:40.915Z,11.42
2022-10-03T18:18:46.012Z,11.69
2022-10-03T18:21:47.669Z,11.69
2022-10-03T18:24:22.028Z,11.65
2022-10-03T18:27:03.876Z,11.40
2022-10-03T18:29:41.448Z,11.30
2022-10-03T18:32:14.813Z,11.41
2022-10-03T18:34:48.827Z,11.42
2022-10-03T18:37:40.822Z,11.39
2022-10-03T18:40:18.900Z,11.50
2022-10-03T18:42:54.562Z,11.43
2022-10-03T18:45:30.236Z,11.32
2022-10-03T18:48:13.990Z,11.13
2022-10-03T18:50:53.901Z,10.87
2022-10-03T18:53:34.172Z,10.92
2022-10-03T18:56:09.853Z,10.66
2022-10-03T18:58:41.342Z,10.78
2022-10-03T19:01:30.585Z,10.74
2022-10-03T19:04:08.843Z,10.66
2022-10-03T19:06:38.662Z,10.59
2022-10-03T19:09:19.459Z,10.39
2022-10-03T19:12:09.635Z,10.46
2022-10-03T19:15:07.465Z,10.40
2022-10-03T19:18:06.591Z,10.55
2022-10-03T19:20:38.592Z,10.29
2022-10-03T19:23:13.079Z,10.21
2022-10-03T19:25:43.344Z,10.44
2022-10-03T19:28:47.255Z,10.16
2022-10-03T19:31:20.610Z,10.30
2022-10-03T19:33:51.719Z,10.21
2022-10-03T19:36:29.184Z,10.16
2022-10-03T19:38:58.252Z,10.11
2022-10-03T19:41:57.138Z,9.94
2022-10-03T19:44:26.413Z,10.02
2022-10-03T19:47:00.684Z,10.01
2022-10-03T19:49:40.075Z,9.82
2022-10-03T19:52:14.985Z,9.77
2022-10-03T19:55:12.724Z,9.63
2022-10-03T19:57:41.422Z,9.68
2022-10-03T20:00:23.265Z,9.73
2022-10-03T20:02:55.993Z,9.59
2022-10-03T20:05:29.147Z,9.41
2022-10-03T20:07:59.581Z,9.53
2022-10-03T20:11:01.337Z,9.68
2022-10-03T20:13:28.535Z,9.62
2022-10-03T20:15:56.870Z,9.57
2022-10-03T20:18:31.547Z,9.49
2022-10-03T20:20:59.513Z,9.51
2022-10-03T20:23:30.730Z,9.53
2022-10-03T20:26:05.531Z,9.26
2022-10-03T20:28:55.623Z,9.42
2022-10-03T20:31:25.436Z,9.31
2022-10-03T20:33:54.281Z,9.23
2022-10-03T20:36:26.982Z,9.31
2022-10-03T20:39:11.967Z,9.18
2022-10-03T20:41:41.606Z,9.13
2022-10-03T20:44:28.225Z,9.30
2022-10-03T20:47:07.255Z,9.23
2022-10-03T20:49:39.187Z,9.24
2022-10-03T20:52:08.000Z,9.29
2022-10-03T20:54:56.672Z,9.29
2022-10-03T20:57:50.855Z,9.37
2022-10-03T21:00:21.750Z,9.47
2022-10-03T21:02:56.929Z,9.38
2022-10-03T21:05:38.088Z,9.36
2022-10-03T21:08:38.020Z,9.24
2022-10-03T21:11:27.390Z,9.23
2022-10-03T21:13:57.831Z,9.04
2022-10-03T21:16:30.933Z,9.06
2022-10-03T21:19:03.250Z,8.86
2022-10-03T21:21:40.989Z,8.75
2022-10-03T21:24:15.704Z,8.87
2022-10-03T21:26:47.624Z,8.65
2022-10-03T21:29:31.363Z,8.61
2022-10-03T21:32:27.545Z,8.67
2022-10-03T21:35:17.671Z,8.82
2022-10-03T21:38:05.398Z,8.77
2022-10-03T21:40:47.978Z,8.72
2022-10-03T21:43:39.064Z,8.36
2022-10-03T21:46:24.115Z,8.33
2022-10-03T21:48:59.185Z,8.38
2022-10-03T21:51:47.442Z,8.42
2022-10-03T21:54:40.329Z,8.46
2022-10-03T21:57:18.657Z,8.43
2022-10-03T22:00:11.588Z,8.33
2022-10-03T22:03:04.038Z,8.19
2022-10-03T22:05:36.272Z,8.26
2022-10-03T22:08:13.721Z,8.19
2022-10-03T22:10:55.849Z,8.19
2022-10-03T22:13:25.787Z,8.24
2022-10-03T22:16:02.004Z,8.24
2022-10-03T22:18:41.929Z,8.01
2022-10-03T22:21:26.004Z,8.27
2022-10-03T22:24:07.654Z,8.35
2022-10-03T22:26:42.797Z,8.35
2022-10-03T22:29:34.319Z,8.22
2022-10-03T22:32:13.401Z,7.98
2022-10-03T22:35:05.095Z,7.81
2022-10-03T22:37:31.459Z,7.84
2022-10-03T22:39:59.863Z,7.75
2022-10-03T22:42:30.552Z,7.77
2022-10-03T22:44:57.739Z,7.69
2022-10-03T22:47:33.327Z,7.69
2022-10-03T22:50:03.628Z,7.80
2022-10-03T22:52:37.509Z,7.92
2022-10-03T22:55:08.412Z,7.85
2022-10-03T22:57:36.166Z,7.82
2022-10-03T23:00:12.158Z,7.68
2022-10-03T23:02:45.749Z,7.45
2022-10-03T23:05:47.514Z,7.29
2022-10-03T23:08:23.585Z,7.32
2022-10-03T23:11:06.139Z,7.40
2022-10-03T23:13:39.983Z,7.43
2022-10-03T23:16:28.471Z,7.16
2022-10-03T23:18:57.786Z,7.43
2022-10-03T23:21:25.180Z,7.59
2022-10-03T23:24:03.530Z,7.39
2022-10-03T23:26:56.281Z,7.23
2022-10-03T23:29:22.930Z,7.27
2022-10-03T23:32:04.565Z,7.32
2022-10-03T23:34:36.693Z,7.39
2022-10-03T23:37:15.012Z,7.29
2022-10-03T23:39:55.032Z,7.25
2022-10-03T23:42:40.130Z,7.24
2022-10-03T23:45:06.425Z,7.16
2022-10-03T23:47:38.982Z,7.31
2022-10-03T23:50:07.412Z,7.34
2022-10-03T23:52:49.697Z,7.24
2022-10-03T23:55:25.470Z,7.06
2022-10-03T23:57:51.877Z,7.01
